createdAt,value
2022-10-03T00:03:05.274Z,31.534
2022-10-03T00:18:07.179Z,30.992
2022-10-03T00:33:09.025Z,31.151
2022-10-03T00:48:10.888Z,30.848
2022-10-03T01:03:12.747Z,31.081
2022-10-03T01:18:14.579Z,31.37
2022-10-03T01:33:16.392Z,31.393
2022-10-03T01:48:18.219Z,31.428
2022-10-03T02:03:20.063Z,31.636
2022-10-03T02:18:21.896Z,31.585
2022-10-03T02:33:23.698Z,31.473
2022-10-03T02:48:31.927Z,31.514
2022-10-03T03:03:34.329Z,30.627
2022-10-03T03:18:36.178Z,31.002
2022-10-03T03:33:38.012Z,30.686
2022-10-03T03:48:39.826Z,30.476
2022-10-03T04:03:41.660Z,30.894
2022-10-03T04:18:43.491Z,31.328
2022-10-03T04:33:45.319Z,29.939
2022-10-03T04:48:47.124Z,30.075
2022-10-03T05:03:48.981Z,30.458
2022-10-03T05:18:50.808Z,31.249
2022-10-03T05:33:52.653Z,31.626
2022-10-03T05:48:54.504Z,31.766
2022-10-03T06:03:56.334Z,31.921
2022-10-03T06:18:58.147Z,31.945
2022-10-03T06:34:00.016Z,32.313
2022-10-03T06:49:01.875Z,31.714
2022-10-03T07:04:03.710Z,31.026
2022-10-03T07:19:05.569Z,30.608
2022-10-03T07:34:07.355Z,30.766
2022-10-03T07:49:09.225Z,30.933
2022-10-03T08:04:11.085Z,31.855
2022-10-03T08:19:12.942Z,32.013
2022-10-03T08:34:14.776Z,30.974
2022-10-03T08:49:16.599Z,30.951
2022-10-03T09:04:18.455Z,30.944
2022-10-03T09:19:20.258Z,30.448
2022-10-03T09:34:22.103Z,30.403
2022-10-03T09:49:23.957Z,30.239
2022-10-03T10:04:50.142Z,30.63
2022-10-03T10:19:55.324Z,31.181
2022-10-03T10:34:57.178Z,31.44
2022-10-03T10:49:59.002Z,31.964
2022-10-03T11:05:00.961Z,33.037
2022-10-03T11:20:02.865Z,33.182
2022-10-03T11:35:04.684Z,33.434
2022-10-03T11:50:06.541Z,33.32
2022-10-03T12:05:08.397Z,33.627
2022-10-03T12:20:10.218Z,33.449
2022-10-03T12:35:12.039Z,33.856
2022-10-03T12:50:13.873Z,33.702
2022-10-03T13:05:15.708Z,33.791
2022-10-03T13:20:17.556Z,34.589
2022-10-03T13:35:19.413Z,35.84
2022-10-03T13:50:21.236Z,35.657
2022-10-03T14:05:23.125Z,35.569
2022-10-03T14:20:24.984Z,35.378
2022-10-03T14:35:26.845Z,35.212
2022-10-03T14:50:28.660Z,35.099
2022-10-03T15:05:30.506Z,34.786
2022-10-03T15:20:32.334Z,34.872
2022-10-03T15:35:34.143Z,34.833
2022-10-03T15:50:36.006Z,34.606
2022-10-03T16:05:37.862Z,34.422
2022-10-03T16:20:39.734Z,34.535
2022-10-03T16:35:41.572Z,34.804
2022-10-03T16:50:43.427Z,34.569
2022-10-03T17:05:45.261Z,32.321
2022-10-03T17:20:47.101Z,31.193
2022-10-03T17:35:48.964Z,31.535
2022-10-03T17:50:50.789Z,31.104
2022-10-03T18:05:52.600Z,30.684
2022-10-03T18:20:54.457Z,31.537
2022-10-03T18:35:56.324Z,31.154
2022-10-03T18:50:58.181Z,30.979
2022-10-03T19:06:00.024Z,31.167
2022-10-03T19:21:01.845Z,30.638
2022-10-03T19:36:03.662Z,30.891
2022-10-03T19:51:05.504Z,30.158
2022-10-03T20:06:07.334Z,30.12
2022-10-03T20:21:09.156Z,30.025
2022-10-03T20:36:11.002Z,28.474
2022-10-03T20:51:12.862Z,28.699
2022-10-03T21:06:15.010Z,28.69
2022-10-03T21:21:17.593Z,29.081
2022-10-03T21:36:19.457Z,29.294
2022-10-03T21:51:21.236Z,29.437
2022-10-03T22:06:23.063Z,29.775
2022-10-03T22:21:24.915Z,29.79
2022-10-03T22:36:26.741Z,29.896
2022-10-03T22:51:28.565Z,30.517
2022-10-03T23:06:30.400Z,31.188
2022-10-03T23:21:32.227Z,30.202
2022-10-03T23:36:34.076Z,30.281
2022-10-03T23:51:35.913Z,30.076
